Time;durP1;ratioP1;P1;durP2;ratioP2;P2;SDS_P1;SDS_P2;PMS_P1;PMS_P2;Temp;Humidity;BMP_temperature;BMP_pressure;BME280_temperature;BME280_humidity;BME280_pressure;Samples;Min_cycle;Max_cycle;Signal;HPM_P1;HPM_P2
2022/10/16 00:00:39;;;;;;;12.10;8.83;;;15.20;99.90;;;;;;5113329;28;20498;-74
2022/10/16 00:03:06;;;;;;;11.53;8.67;;;15.10;99.90;;;;;;5115504;28;20212;-73
2022/10/16 00:05:33;;;;;;;11.90;9.10;;;15.20;99.90;;;;;;5104032;28;20215;-74
2022/10/16 00:08:02;;;;;;;10.63;7.83;;;15.20;99.90;;;;;;5115058;28;20238;-73
2022/10/16 00:10:29;;;;;;;12.67;9.10;;;15.10;99.90;;;;;;5112916;28;20204;-73
2022/10/16 00:12:57;;;;;;;9.80;8.53;;;15.20;99.90;;;;;;5112657;28;20594;-74
2022/10/16 00:15:24;;;;;;;11.50;8.97;;;15.20;99.90;;;;;;5112951;28;20700;-73
2022/10/16 00:17:51;;;;;;;9.80;8.07;;;15.20;99.90;;;;;;5109972;28;20207;-74
2022/10/16 00:20:18;;;;;;;10.97;7.53;;;15.20;99.90;;;;;;5113347;28;20203;-73
2022/10/16 00:22:44;;;;;;;10.13;7.93;;;15.20;99.90;;;;;;5113425;28;20230;-73
2022/10/16 00:25:11;;;;;;;10.57;8.23;;;15.20;99.90;;;;;;5115574;28;20568;-73
2022/10/16 00:27:38;;;;;;;9.93;8.23;;;15.30;99.90;;;;;;5113580;28;20699;-73
2022/10/16 00:30:08;;;;;;;10.97;8.70;;;15.20;99.90;;;;;;5114325;28;20568;-73
2022/10/16 00:32:35;;;;;;;12.23;8.67;;;15.20;99.90;;;;;;5111840;28;20215;-73
2022/10/16 00:35:03;;;;;;;13.07;9.00;;;15.20;99.90;;;;;;5114818;28;20224;-73
2022/10/16 00:37:30;;;;;;;12.47;9.03;;;15.20;99.90;;;;;;5115230;28;20208;-73
2022/10/16 00:39:57;;;;;;;10.80;9.67;;;15.20;99.90;;;;;;5105825;28;20589;-73
2022/10/16 00:42:24;;;;;;;11.93;9.13;;;15.20;99.90;;;;;;5111144;28;20222;-73
2022/10/16 00:44:53;;;;;;;13.10;8.93;;;15.20;99.90;;;;;;5112412;28;20191;-74
2022/10/16 00:47:27;;;;;;;11.80;9.13;;;15.20;99.90;;;;;;5107424;28;20207;-74
2022/10/16 00:49:59;;;;;;;13.67;10.07;;;15.20;99.90;;;;;;5113802;28;20214;-73
2022/10/16 00:52:26;;;;;;;13.67;9.90;;;15.20;99.90;;;;;;5115057;28;20215;-74
2022/10/16 00:54:54;;;;;;;16.13;10.43;;;15.20;99.90;;;;;;5115195;27;20230;-73
2022/10/16 00:57:21;;;;;;;12.47;9.90;;;15.20;99.90;;;;;;5115177;28;20196;-74
2022/10/16 00:59:48;;;;;;;14.77;9.97;;;15.10;99.90;;;;;;5116091;28;20215;-74
2022/10/16 01:02:16;;;;;;;15.00;10.97;;;15.10;99.90;;;;;;5113876;28;20663;-74
2022/10/16 01:04:45;;;;;;;13.50;10.60;;;15.10;99.90;;;;;;5114810;28;20552;-74
2022/10/16 01:07:24;;;;;;;12.60;10.57;;;15.10;99.90;;;;;;5110060;28;20234;-74
2022/10/16 01:10:01;;;;;;;14.13;10.20;;;15.10;99.90;;;;;;5115261;28;20669;-73
2022/10/16 01:12:37;;;;;;;11.90;9.93;;;15.00;99.90;;;;;;5112286;28;20592;-74
2022/10/16 01:15:11;;;;;;;15.80;11.60;;;15.00;99.90;;;;;;5110146;28;20511;-72
2022/10/16 01:17:45;;;;;;;16.83;10.67;;;15.00;99.90;;;;;;5110599;28;20215;-73
2022/10/16 01:20:21;;;;;;;16.13;10.33;;;15.00;99.90;;;;;;5115591;28;20215;-74
2022/10/16 01:23:02;;;;;;;15.20;11.50;;;15.00;99.90;;;;;;5113268;28;20227;-74
2022/10/16 01:25:40;;;;;;;13.27;10.00;;;15.00;99.90;;;;;;5115667;28;20191;-74
2022/10/16 01:28:12;;;;;;;15.77;10.70;;;15.00;99.90;;;;;;5067034;28;20212;-74
2022/10/16 01:30:42;;;;;;;11.77;10.57;;;15.00;99.90;;;;;;5074344;28;20674;-74
2022/10/16 01:33:15;;;;;;;14.60;10.43;;;15.00;99.90;;;;;;5074197;28;20580;-74
2022/10/16 01:35:47;;;;;;;16.43;11.33;;;15.00;99.90;;;;;;5074235;28;20238;-74
2022/10/16 01:38:18;;;;;;;14.70;10.10;;;15.00;99.90;;;;;;5069776;28;20638;-74
2022/10/16 01:40:48;;;;;;;14.40;11.30;;;15.00;99.90;;;;;;5070455;28;20205;-74
2022/10/16 01:43:20;;;;;;;12.67;10.27;;;15.00;99.90;;;;;;5072619;28;20216;-74
2022/10/16 01:45:48;;;;;;;14.43;11.10;;;14.90;99.90;;;;;;5074308;28;20197;-73
2022/10/16 01:48:18;;;;;;;23.13;10.77;;;15.00;99.90;;;;;;5074345;28;20614;-73
2022/10/16 01:50:53;;;;;;;14.23;11.23;;;15.00;99.90;;;;;;5073129;28;20205;-74
2022/10/16 01:53:20;;;;;;;13.47;10.83;;;14.90;99.90;;;;;;5069039;28;20200;-74
2022/10/16 01:55:50;;;;;;;13.97;11.43;;;14.90;99.90;;;;;;5072588;28;20630;-73
2022/10/16 01:58:18;;;;;;;17.50;11.70;;;14.90;99.90;;;;;;5074283;28;20212;-73
2022/10/16 02:00:46;;;;;;;15.27;11.50;;;14.90;99.90;;;;;;5073248;28;20202;-74
2022/10/16 02:03:17;;;;;;;14.20;10.57;;;14.80;99.90;;;;;;5071890;28;20700;-73
2022/10/16 02:05:47;;;;;;;15.47;11.60;;;14.80;99.90;;;;;;5073147;28;20223;-73
2022/10/16 02:08:14;;;;;;;16.70;12.33;;;14.70;99.90;;;;;;5064566;28;20217;-73
2022/10/16 02:10:41;;;;;;;16.07;11.03;;;14.80;99.90;;;;;;5075282;28;20209;-74
2022/10/16 02:13:12;;;;;;;13.63;12.00;;;14.70;99.90;;;;;;5072082;28;20213;-74
2022/10/16 02:15:40;;;;;;;17.23;11.07;;;14.70;99.90;;;;;;5072110;28;20259;-73
2022/10/16 02:18:09;;;;;;;15.23;10.83;;;14.70;99.90;;;;;;5070540;28;20201;-74
2022/10/16 02:20:44;;;;;;;14.37;11.97;;;14.70;99.90;;;;;;5072086;28;20551;-74
2022/10/16 02:23:15;;;;;;;16.70;11.53;;;14.70;99.90;;;;;;5074804;28;20235;-74
2022/10/16 02:25:46;;;;;;;15.87;11.67;;;14.70;99.90;;;;;;5075522;28;20220;-72
2022/10/16 02:28:18;;;;;;;15.97;11.57;;;14.70;99.90;;;;;;5109742;28;20200;-74
2022/10/16 02:30:49;;;;;;;14.77;11.63;;;14.70;99.90;;;;;;5112798;28;20668;-73
2022/10/16 02:33:18;;;;;;;15.07;11.17;;;14.70;99.90;;;;;;5113464;28;20220;-73
2022/10/16 02:35:48;;;;;;;15.43;11.50;;;14.70;99.90;;;;;;5114058;28;20599;-73
2022/10/16 02:38:16;;;;;;;14.90;11.87;;;14.70;99.90;;;;;;5109503;28;20666;-73
2022/10/16 02:40:43;;;;;;;14.23;11.73;;;14.70;99.90;;;;;;5113243;28;20200;-74
2022/10/16 02:43:11;;;;;;;16.50;11.47;;;14.70;99.90;;;;;;5110443;28;20648;-73
2022/10/16 02:45:38;;;;;;;15.00;11.67;;;14.70;99.90;;;;;;5112826;28;20212;-74
2022/10/16 02:48:06;;;;;;;15.60;11.43;;;14.70;99.90;;;;;;5112734;28;20204;-73
2022/10/16 02:50:33;;;;;;;14.80;12.40;;;14.70;99.90;;;;;;5110925;28;20943;-74
2022/10/16 02:53:00;;;;;;;17.57;12.10;;;14.70;99.90;;;;;;5108161;28;20196;-74
2022/10/16 02:55:27;;;;;;;16.83;12.33;;;14.70;99.90;;;;;;5113656;28;20314;-73
2022/10/16 02:57:54;;;;;;;16.47;12.30;;;14.70;99.90;;;;;;5111936;28;20207;-72
2022/10/16 03:00:21;;;;;;;15.63;11.90;;;14.70;99.90;;;;;;5111777;28;20204;-73
2022/10/16 03:02:48;;;;;;;18.17;12.43;;;14.70;99.90;;;;;;5112666;28;20585;-73
2022/10/16 03:05:17;;;;;;;16.13;11.70;;;14.70;99.90;;;;;;5114490;28;20214;-73
2022/10/16 03:07:43;;;;;;;16.07;11.90;;;14.70;99.90;;;;;;5112710;28;20578;-72
2022/10/16 03:10:10;;;;;;;16.80;13.00;;;14.70;99.90;;;;;;5113322;28;20212;-73
2022/10/16 03:12:37;;;;;;;15.53;12.83;;;14.80;99.90;;;;;;5111909;28;20206;-74
2022/10/16 03:15:05;;;;;;;15.10;12.27;;;14.80;99.90;;;;;;5111531;28;20435;-73
2022/10/16 03:17:33;;;;;;;20.23;12.27;;;14.80;99.90;;;;;;5108575;28;20220;-73
2022/10/16 03:19:59;;;;;;;16.67;12.10;;;14.80;99.90;;;;;;5112921;28;20210;-72
2022/10/16 03:22:28;;;;;;;15.77;12.43;;;14.90;99.90;;;;;;5112185;28;20228;-73
2022/10/16 03:24:54;;;;;;;16.23;11.37;;;14.80;99.90;;;;;;5101230;28;20208;-74
2022/10/16 03:27:21;;;;;;;16.07;12.17;;;14.70;99.90;;;;;;5111648;28;20235;-73
2022/10/16 03:29:48;;;;;;;16.17;11.33;;;14.70;99.90;;;;;;5109818;28;20211;-73
2022/10/16 03:32:15;;;;;;;16.73;12.27;;;14.70;99.90;;;;;;5110501;28;20204;-72
2022/10/16 03:34:41;;;;;;;14.87;11.57;;;14.80;99.90;;;;;;5110335;28;20215;-74
2022/10/16 03:37:08;;;;;;;16.43;12.13;;;14.70;99.90;;;;;;5112361;28;20770;-75
2022/10/16 03:39:36;;;;;;;14.03;11.63;;;14.70;99.90;;;;;;5111564;28;20210;-75
2022/10/16 03:42:03;;;;;;;17.67;11.23;;;14.70;99.90;;;;;;5111841;28;20214;-73
2022/10/16 03:44:30;;;;;;;15.40;11.63;;;14.70;99.90;;;;;;5112677;28;20214;-74
2022/10/16 03:46:57;;;;;;;15.63;11.73;;;14.70;99.90;;;;;;5113533;28;20211;-73
2022/10/16 03:49:24;;;;;;;15.20;11.33;;;14.70;99.90;;;;;;5111061;28;20200;-75
2022/10/16 03:51:50;;;;;;;15.37;11.27;;;14.70;99.90;;;;;;5109278;28;20199;-73
2022/10/16 03:54:17;;;;;;;14.77;11.77;;;14.70;99.90;;;;;;5114309;28;20215;-74
2022/10/16 03:56:45;;;;;;;15.27;10.93;;;14.70;99.90;;;;;;5112622;28;20231;-73
2022/10/16 03:59:12;;;;;;;18.80;11.63;;;14.70;99.90;;;;;;5112231;28;20212;-73
2022/10/16 04:01:39;;;;;;;22.70;12.57;;;14.60;99.90;;;;;;5110641;28;20315;-74
2022/10/16 04:04:06;;;;;;;18.20;10.93;;;14.70;99.90;;;;;;5111313;28;20580;-72
2022/10/16 04:06:32;;;;;;;14.03;11.23;;;14.60;99.90;;;;;;5112126;28;20207;-73
2022/10/16 04:08:59;;;;;;;15.37;12.30;;;14.60;99.90;;;;;;5112558;28;20207;-74
2022/10/16 04:11:26;;;;;;;16.77;11.67;;;14.60;99.90;;;;;;5104748;28;20549;-73
2022/10/16 04:13:54;;;;;;;14.27;11.40;;;14.50;99.90;;;;;;5110697;28;20200;-73
2022/10/16 04:16:21;;;;;;;14.67;11.27;;;14.50;99.90;;;;;;5110075;28;20225;-73
2022/10/16 04:18:48;;;;;;;14.20;11.43;;;14.50;99.90;;;;;;5115875;28;20208;-74
2022/10/16 04:21:15;;;;;;;14.73;11.60;;;14.40;99.90;;;;;;5106258;28;20219;-73
2022/10/16 04:23:43;;;;;;;15.57;11.10;;;14.40;99.90;;;;;;5113589;28;20224;-73
2022/10/16 04:26:10;;;;;;;16.23;11.37;;;14.40;99.90;;;;;;5112754;28;20224;-73
2022/10/16 04:28:37;;;;;;;15.33;10.77;;;14.40;99.90;;;;;;5107006;28;20757;-74
2022/10/16 04:31:06;;;;;;;15.30;11.80;;;14.40;99.90;;;;;;5112121;28;20219;-75
2022/10/16 04:33:33;;;;;;;15.03;11.20;;;14.40;99.90;;;;;;5114945;28;20204;-74
2022/10/16 04:36:01;;;;;;;17.27;11.70;;;14.40;99.90;;;;;;5115633;28;20224;-71
2022/10/16 04:38:28;;;;;;;14.80;11.60;;;14.40;99.90;;;;;;5115219;28;20216;-75
2022/10/16 04:40:55;;;;;;;13.33;10.03;;;14.40;99.90;;;;;;5110410;28;20636;-74
2022/10/16 04:43:22;;;;;;;16.07;12.00;;;14.40;99.90;;;;;;5115068;28;20208;-73
2022/10/16 04:45:50;;;;;;;15.57;11.73;;;14.40;99.90;;;;;;5117459;27;20210;-74
2022/10/16 04:48:19;;;;;;;17.77;11.57;;;14.40;99.90;;;;;;5115960;28;20261;-74
2022/10/16 04:50:45;;;;;;;16.53;11.97;;;14.40;99.90;;;;;;5113288;28;20544;-74
2022/10/16 04:53:12;;;;;;;16.43;11.90;;;14.40;99.90;;;;;;5113677;28;20215;-74
2022/10/16 04:55:39;;;;;;;13.27;10.60;;;14.30;99.90;;;;;;5115656;28;20208;-74
2022/10/16 04:58:07;;;;;;;14.63;11.07;;;14.30;99.90;;;;;;5114346;28;20204;-74
2022/10/16 05:00:34;;;;;;;15.53;11.73;;;14.20;99.90;;;;;;5113997;28;20200;-74
2022/10/16 05:03:01;;;;;;;14.50;11.30;;;14.20;99.90;;;;;;5115984;28;20695;-73
2022/10/16 05:05:29;;;;;;;14.37;11.20;;;14.20;99.90;;;;;;5112669;28;20271;-74
2022/10/16 05:07:56;;;;;;;15.27;11.30;;;14.20;99.90;;;;;;5116220;28;20632;-73
2022/10/16 05:10:23;;;;;;;14.73;11.90;;;14.20;99.90;;;;;;5111174;28;20570;-73
2022/10/16 05:12:51;;;;;;;16.33;11.50;;;14.10;99.90;;;;;;5112983;28;20207;-74
2022/10/16 05:15:18;;;;;;;13.57;11.13;;;14.10;99.90;;;;;;5113326;28;20242;-73
2022/10/16 05:17:45;;;;;;;14.90;11.53;;;14.00;99.90;;;;;;5108795;28;20251;-74
2022/10/16 05:20:12;;;;;;;14.70;11.47;;;14.00;99.90;;;;;;5115625;28;20943;-73
2022/10/16 05:22:40;;;;;;;17.03;11.03;;;14.00;99.90;;;;;;5115735;28;20234;-74
2022/10/16 05:25:08;;;;;;;16.47;11.10;;;14.00;99.90;;;;;;5111658;28;20204;-72
2022/10/16 05:27:34;;;;;;;16.83;12.40;;;14.00;99.90;;;;;;5109144;28;20687;-75
2022/10/16 05:30:01;;;;;;;13.03;10.70;;;14.00;99.90;;;;;;5110205;28;20668;-73
2022/10/16 05:32:28;;;;;;;14.70;11.30;;;14.00;99.90;;;;;;5113865;28;20667;-75
2022/10/16 05:34:55;;;;;;;16.67;11.97;;;14.00;99.90;;;;;;5113470;28;20206;-74
2022/10/16 05:37:21;;;;;;;15.37;11.93;;;14.00;99.90;;;;;;5111748;28;20216;-77
2022/10/16 05:39:49;;;;;;;14.63;11.33;;;14.00;99.90;;;;;;5108978;28;20200;-76
2022/10/16 05:42:16;;;;;;;12.40;10.77;;;14.00;99.90;;;;;;5114304;28;20211;-77
2022/10/16 05:44:43;;;;;;;13.30;11.23;;;14.00;99.90;;;;;;5113222;27;20220;-73
2022/10/16 05:47:10;;;;;;;15.80;11.13;;;14.00;99.90;;;;;;5112140;28;20211;-74
2022/10/16 05:49:37;;;;;;;16.63;10.97;;;14.00;99.90;;;;;;5103317;28;20205;-75
2022/10/16 05:52:04;;;;;;;14.73;11.47;;;13.90;99.90;;;;;;5110919;28;20204;-73
2022/10/16 05:54:31;;;;;;;13.80;10.83;;;14.00;99.90;;;;;;5108680;28;20200;-72
2022/10/16 05:56:59;;;;;;;14.57;11.63;;;14.00;99.90;;;;;;5110280;28;20228;-75
2022/10/16 05:59:25;;;;;;;14.87;11.63;;;14.00;99.90;;;;;;5113501;28;20207;-75
2022/10/16 06:01:53;;;;;;;12.07;10.33;;;14.10;99.90;;;;;;5105113;28;20204;-75
2022/10/16 06:04:20;;;;;;;17.67;12.13;;;14.00;99.90;;;;;;5111718;28;20212;-75
2022/10/16 06:06:46;;;;;;;12.37;10.80;;;14.00;99.90;;;;;;5110875;28;20204;-76
2022/10/16 06:09:13;;;;;;;15.00;11.43;;;14.00;99.90;;;;;;5104667;28;20204;-76
2022/10/16 06:11:40;;;;;;;14.57;10.40;;;14.00;99.90;;;;;;5113524;28;20216;-76
2022/10/16 06:14:09;;;;;;;14.97;11.03;;;14.10;99.90;;;;;;5108011;28;20208;-74
2022/10/16 06:16:37;;;;;;;16.23;11.17;;;14.10;99.90;;;;;;5106682;28;20216;-74
2022/10/16 06:19:06;;;;;;;13.97;11.10;;;14.20;99.90;;;;;;5113365;28;20211;-75
2022/10/16 06:21:33;;;;;;;14.97;11.07;;;14.20;99.90;;;;;;5109326;28;20215;-70
2022/10/16 06:24:00;;;;;;;13.90;10.80;;;14.20;99.90;;;;;;5111163;28;20235;-68
2022/10/16 06:26:28;;;;;;;15.73;11.33;;;14.30;99.90;;;;;;5109479;28;20228;-73
2022/10/16 06:28:56;;;;;;;21.83;11.13;;;14.30;99.90;;;;;;5105950;28;20566;-71
2022/10/16 06:31:28;;;;;;;14.03;11.13;;;14.40;99.90;;;;;;5106652;28;20210;-72
2022/10/16 06:33:56;;;;;;;13.60;11.43;;;14.50;99.90;;;;;;5102984;28;20200;-70
2022/10/16 06:36:22;;;;;;;12.53;10.53;;;14.60;99.90;;;;;;5107141;28;20234;-71
2022/10/16 06:38:49;;;;;;;13.50;10.70;;;14.60;99.90;;;;;;5110296;28;20227;-71
2022/10/16 06:41:18;;;;;;;14.27;11.37;;;14.70;99.90;;;;;;5105532;28;20722;-72
2022/10/16 06:43:45;;;;;;;15.37;11.33;;;14.70;99.90;;;;;;5108307;28;20208;-72
2022/10/16 06:46:14;;;;;;;15.90;10.90;;;14.80;99.90;;;;;;5112106;28;20207;-69
2022/10/16 06:48:43;;;;;;;15.57;10.47;;;14.90;99.90;;;;;;5105234;28;20204;-71
2022/10/16 06:51:11;;;;;;;12.90;11.00;;;15.00;99.90;;;;;;5112290;28;20210;-70
2022/10/16 06:53:41;;;;;;;15.43;10.23;;;15.20;99.90;;;;;;5110671;28;20204;-70
2022/10/16 06:56:09;;;;;;;17.67;11.10;;;15.50;99.90;;;;;;5112474;28;20571;-68
2022/10/16 06:58:36;;;;;;;12.13;9.97;;;15.90;99.90;;;;;;5108510;28;20724;-70
2022/10/16 07:01:03;;;;;;;15.53;11.27;;;16.10;99.90;;;;;;5100889;28;20208;-74
2022/10/16 07:03:30;;;;;;;13.77;10.65;;;16.30;99.90;;;;;;5107214;28;20204;-73
2022/10/16 07:06:03;;;;;;;17.47;10.20;;;16.50;99.90;;;;;;5113037;28;20204;-71
2022/10/16 07:08:32;;;;;;;15.68;10.30;;;16.60;99.90;;;;;;5109902;28;20255;-70
2022/10/16 07:11:00;;;;;;;14.57;10.82;;;16.60;99.90;;;;;;5104085;28;20204;-71
2022/10/16 07:13:27;;;;;;;12.30;9.30;;;16.50;99.90;;;;;;5106454;28;20231;-71
2022/10/16 07:15:54;;;;;;;13.52;10.20;;;16.40;99.90;;;;;;5110214;28;20218;-71
2022/10/16 07:18:21;;;;;;;13.50;10.05;;;16.40;99.90;;;;;;5109973;28;20227;-68
2022/10/16 07:20:48;;;;;;;14.77;10.57;;;16.20;99.90;;;;;;5112716;28;20207;-72
2022/10/16 07:23:16;;;;;;;14.23;10.98;;;16.10;99.90;;;;;;5108799;28;20238;-70
2022/10/16 07:25:43;;;;;;;13.10;10.27;;;16.00;99.90;;;;;;5111404;28;20204;-70
2022/10/16 07:28:09;;;;;;;13.97;10.27;;;16.00;99.90;;;;;;5109964;28;20211;-71
2022/10/16 07:30:37;;;;;;;12.30;10.50;;;15.90;99.90;;;;;;5111209;28;20336;-72
2022/10/16 07:33:04;;;;;;;14.57;10.73;;;15.90;99.90;;;;;;5093433;28;20203;-71
2022/10/16 07:35:32;;;;;;;14.17;10.47;;;15.90;99.90;;;;;;5111931;28;20206;-75
2022/10/16 07:37:58;;;;;;;15.73;11.23;;;16.00;99.90;;;;;;5110464;28;20776;-70
2022/10/16 07:40:27;;;;;;;12.67;10.77;;;16.00;99.90;;;;;;5112718;28;20656;-73
2022/10/16 07:42:54;;;;;;;15.27;10.53;;;16.10;99.90;;;;;;5107845;28;20202;-75
2022/10/16 07:45:21;;;;;;;13.43;10.13;;;16.10;99.90;;;;;;5102191;28;20204;-73
2022/10/16 07:47:48;;;;;;;13.97;10.33;;;16.30;99.90;;;;;;5113412;28;20203;-72
2022/10/16 07:50:15;;;;;;;16.45;10.88;;;16.40;99.90;;;;;;5112362;28;20260;-72
2022/10/16 07:52:42;;;;;;;13.90;9.82;;;16.70;99.90;;;;;;5111570;28;20207;-71
2022/10/16 07:55:09;;;;;;;12.73;9.63;;;17.00;99.90;;;;;;5112708;28;20668;-71
2022/10/16 07:57:37;;;;;;;13.10;10.30;;;17.40;99.90;;;;;;5111067;28;20227;-71
2022/10/16 08:00:05;;;;;;;10.98;9.63;;;17.80;99.90;;;;;;5112084;28;20208;-70
2022/10/16 08:02:34;;;;;;;12.18;10.02;;;18.10;99.90;;;;;;5109506;28;20574;-70
2022/10/16 08:05:01;;;;;;;12.40;10.55;;;18.50;99.90;;;;;;5108369;28;20196;-70
2022/10/16 08:07:30;;;;;;;14.27;9.73;;;18.80;99.90;;;;;;5115713;28;20204;-71
2022/10/16 08:09:58;;;;;;;11.63;9.85;;;19.10;99.90;;;;;;5116494;28;20207;-71
2022/10/16 08:12:25;;;;;;;14.07;9.85;;;19.30;99.90;;;;;;5114539;28;20231;-72
2022/10/16 08:14:53;;;;;;;10.75;9.25;;;19.60;99.90;;;;;;5108795;28;20215;-70
2022/10/16 08:17:20;;;;;;;12.90;9.10;;;19.80;99.90;;;;;;5109809;28;20238;-72
2022/10/16 08:19:47;;;;;;;13.35;9.23;;;20.00;99.90;;;;;;5115657;28;20648;-71
2022/10/16 08:22:14;;;;;;;13.02;9.77;;;20.10;99.90;;;;;;5115285;28;20223;-71
2022/10/16 08:24:41;;;;;;;11.20;8.77;;;20.20;99.90;;;;;;5114507;28;20208;-71
2022/10/16 08:27:08;;;;;;;13.30;10.20;;;20.20;99.90;;;;;;5114264;28;20228;-70
2022/10/16 08:29:35;;;;;;;13.15;9.35;;;20.20;99.90;;;;;;5114159;28;20546;-71
2022/10/16 08:32:05;;;;;;;11.07;9.05;;;20.40;99.90;;;;;;5110761;28;20225;-71
2022/10/16 08:34:31;;;;;;;12.55;9.13;;;20.60;99.90;;;;;;5112265;28;20219;-69
2022/10/16 08:36:58;;;;;;;11.45;8.73;;;20.80;99.90;;;;;;5108682;28;20215;-70
2022/10/16 08:39:25;;;;;;;10.43;9.18;;;21.00;99.90;;;;;;5110047;28;20570;-68
2022/10/16 08:42:12;;;;;;;13.85;8.40;;;21.10;99.90;;;;;;5111211;28;20204;-69
2022/10/16 08:45:14;;;;;;;12.18;8.52;;;21.10;99.90;;;;;;5112666;28;20200;-71
2022/10/16 08:47:50;;;;;;;10.75;8.00;;;21.20;99.90;;;;;;5075885;28;20543;-72
2022/10/16 08:50:23;;;;;;;9.20;8.07;;;21.20;99.90;;;;;;5110147;28;20199;-71
2022/10/16 08:52:51;;;;;;;10.05;8.43;;;21.20;99.90;;;;;;5108280;28;20216;-71
2022/10/16 08:55:33;;;;;;;10.23;7.72;;;21.30;99.90;;;;;;5114738;28;20207;-70
2022/10/16 08:58:00;;;;;;;9.63;7.65;;;21.60;99.90;;;;;;5111092;28;20317;-70
2022/10/16 09:00:28;;;;;;;8.68;7.65;;;22.60;99.90;;;;;;5113926;28;20216;-71
2022/10/16 09:03:05;;;;;;;8.77;7.82;;;23.10;99.90;;;;;;5106348;28;20200;-71
2022/10/16 09:05:59;;;;;;;11.07;7.93;;;23.80;99.90;;;;;;5111915;28;20577;-69
2022/10/16 09:08:34;;;;;;;12.85;7.20;;;23.90;98.80;;;;;;5113593;28;20211;-73
2022/10/16 09:11:08;;;;;;;8.43;7.63;;;24.10;97.80;;;;;;5112491;28;20543;-70
2022/10/16 09:13:46;;;;;;;8.93;7.72;;;24.30;96.40;;;;;;5107817;28;20984;-69
2022/10/16 09:16:20;;;;;;;8.48;7.28;;;24.40;95.80;;;;;;5103069;28;20196;-68
2022/10/16 09:18:59;;;;;;;10.48;8.55;;;24.60;96.10;;;;;;5111019;28;20647;-69
2022/10/16 09:21:29;;;;;;;10.60;7.45;;;25.80;94.10;;;;;;5112924;28;20288;-71
2022/10/16 09:24:00;;;;;;;8.02;7.18;;;26.70;91.30;;;;;;5111963;28;20590;-69
2022/10/16 09:26:27;;;;;;;8.52;6.72;;;27.50;88.60;;;;;;5109263;28;20238;-70
2022/10/16 09:28:54;;;;;;;8.95;7.68;;;28.40;82.30;;;;;;5111783;28;20204;-70
2022/10/16 09:31:22;;;;;;;8.30;7.15;;;28.70;76.10;;;;;;5109518;28;20208;-67
2022/10/16 09:33:56;;;;;;;8.23;7.40;;;28.20;74.10;;;;;;5108229;28;20211;-70
2022/10/16 09:36:26;;;;;;;10.68;7.57;;;27.70;75.50;;;;;;5110960;28;20207;-68
2022/10/16 09:39:05;;;;;;;9.48;7.07;;;27.50;75.10;;;;;;5113563;28;20733;-70
2022/10/16 09:41:35;;;;;;;11.57;7.68;;;27.10;75.90;;;;;;5109106;28;20238;-68
2022/10/16 09:44:04;;;;;;;8.27;6.82;;;26.70;75.70;;;;;;5114009;28;20208;-68
2022/10/16 09:46:33;;;;;;;9.43;7.45;;;26.30;77.10;;;;;;5111750;28;20212;-69
2022/10/16 09:49:03;;;;;;;10.00;7.57;;;25.70;78.20;;;;;;5110328;28;20206;-69
2022/10/16 09:51:32;;;;;;;8.32;7.22;;;25.30;80.50;;;;;;5111761;28;20199;-73
2022/10/16 09:54:00;;;;;;;8.48;7.50;;;25.10;81.90;;;;;;5113296;28;20200;-70
2022/10/16 09:56:29;;;;;;;9.85;7.38;;;25.20;84.10;;;;;;5109908;28;20207;-72
2022/10/16 09:58:58;;;;;;;9.60;7.72;;;26.40;84.90;;;;;;5108884;28;20224;-69
2022/10/16 10:01:38;;;;;;;7.75;6.97;;;27.70;76.90;;;;;;5112575;28;20586;-70
2022/10/16 10:04:07;;;;;;;9.25;6.85;;;28.40;73.10;;;;;;5110766;28;20861;-69
2022/10/16 10:06:37;;;;;;;7.72;6.93;;;28.90;70.80;;;;;;5109668;28;20656;-70
2022/10/16 10:09:17;;;;;;;8.85;6.93;;;29.20;70.00;;;;;;5109243;28;20610;-69
2022/10/16 10:11:48;;;;;;;8.32;6.93;;;28.90;67.40;;;;;;5104557;28;20188;-68
2022/10/16 10:14:23;;;;;;;10.10;7.00;;;28.60;68.70;;;;;;5105959;28;20200;-69
2022/10/16 10:16:51;;;;;;;11.40;7.15;;;28.50;70.30;;;;;;5099311;28;20199;-69
2022/10/16 10:19:21;;;;;;;9.98;7.63;;;29.10;69.40;;;;;;5108646;28;20224;-69
2022/10/16 10:21:49;;;;;;;11.38;8.23;;;29.60;66.90;;;;;;5108619;27;20657;-68
2022/10/16 10:24:18;;;;;;;8.52;7.03;;;30.00;66.50;;;;;;5106584;28;20207;-70
2022/10/16 10:26:52;;;;;;;8.35;6.53;;;30.50;64.50;;;;;;5105480;28;20232;-70
2022/10/16 10:29:33;;;;;;;6.72;6.00;;;31.40;61.90;;;;;;5108204;28;20548;-69
2022/10/16 10:32:10;;;;;;;7.53;6.00;;;32.20;58.80;;;;;;5111340;28;20208;-69
2022/10/16 10:34:52;;;;;;;13.45;11.32;;;32.30;56.80;;;;;;5109661;28;20196;-68
2022/10/16 10:37:35;;;;;;;10.30;8.38;;;31.90;56.50;;;;;;5107359;28;20200;-70
2022/10/16 10:40:12;;;;;;;7.68;6.95;;;30.90;57.30;;;;;;5110440;28;20208;-69
2022/10/16 10:42:46;;;;;;;7.03;6.32;;;29.80;58.30;;;;;;5106825;28;20207;-68
2022/10/16 10:45:21;;;;;;;14.68;7.53;;;28.70;60.00;;;;;;5098419;28;20567;-68
2022/10/16 10:48:00;;;;;;;10.10;7.38;;;27.80;63.30;;;;;;5105729;28;20598;-69
2022/10/16 10:50:34;;;;;;;9.30;7.20;;;26.90;65.50;;;;;;5110405;28;20211;-70
2022/10/16 10:53:10;;;;;;;7.80;7.00;;;26.30;67.80;;;;;;5108381;28;20217;-72
2022/10/16 10:55:46;;;;;;;8.43;6.90;;;25.60;70.00;;;;;;5111700;28;20207;-73
2022/10/16 10:59:05;;;;;;;7.88;7.07;;;25.20;72.00;;;;;;5108760;28;20215;-71
2022/10/16 11:01:39;;;;;;;9.52;7.30;;;25.00;73.10;;;;;;5107537;28;20195;-69
2022/10/16 11:04:29;;;;;;;10.02;7.35;;;25.00;73.10;;;;;;5108624;28;20204;-72
2022/10/16 11:07:01;;;;;;;8.27;6.82;;;25.00;74.00;;;;;;5110465;28;20572;-70
2022/10/16 11:09:34;;;;;;;8.35;7.45;;;25.00;74.50;;;;;;5105835;28;20570;-70
2022/10/16 11:12:06;;;;;;;8.98;7.35;;;25.00;74.00;;;;;;5102662;28;20200;-71
2022/10/16 11:14:39;;;;;;;9.27;7.32;;;24.90;74.80;;;;;;5106449;28;20519;-70
2022/10/16 11:17:12;;;;;;;7.40;6.60;;;25.00;75.20;;;;;;5109982;28;20215;-69
2022/10/16 11:19:44;;;;;;;9.70;6.93;;;25.00;74.70;;;;;;5110914;28;20212;-70
2022/10/16 11:22:18;;;;;;;8.27;7.28;;;24.70;75.10;;;;;;5111453;28;20230;-69
2022/10/16 11:24:49;;;;;;;10.05;7.07;;;24.90;76.00;;;;;;5109247;28;20200;-67
2022/10/16 11:27:22;;;;;;;11.20;7.38;;;25.20;78.80;;;;;;5105908;28;20582;-73
2022/10/16 11:30:00;;;;;;;14.10;8.32;;;26.10;75.30;;;;;;5099749;28;20219;-71
2022/10/16 11:32:36;;;;;;;9.07;7.10;;;26.80;72.70;;;;;;5111141;28;20766;-73
2022/10/16 11:35:11;;;;;;;8.85;7.13;;;27.20;70.30;;;;;;5097804;28;20754;-68
2022/10/16 11:37:44;;;;;;;8.45;6.43;;;27.10;69.50;;;;;;5109107;28;20642;-70
2022/10/16 11:40:25;;;;;;;9.00;6.78;;;27.40;69.20;;;;;;5114568;28;20204;-74
2022/10/16 11:42:58;;;;;;;7.97;6.20;;;27.30;68.30;;;;;;5116559;27;20242;-70
2022/10/16 11:45:34;;;;;;;7.40;6.25;;;26.80;69.00;;;;;;5107467;27;20199;-69
2022/10/16 11:48:05;;;;;;;7.45;6.68;;;26.30;70.50;;;;;;5113478;27;20203;-67
2022/10/16 11:50:36;;;;;;;7.53;6.25;;;26.60;75.60;;;;;;5114283;28;20195;-70
2022/10/16 11:53:14;;;;;;;8.95;6.22;;;28.40;70.30;;;;;;5115651;27;20603;-70
2022/10/16 11:55:43;;;;;;;8.30;6.00;;;29.80;65.00;;;;;;5117305;27;20659;-69
2022/10/16 11:58:17;;;;;;;7.93;6.55;;;30.50;61.20;;;;;;5116684;27;20227;-72
2022/10/16 12:00:48;;;;;;;8.20;5.82;;;30.30;59.90;;;;;;5112142;28;20615;-72
2022/10/16 12:03:21;;;;;;;8.15;5.72;;;29.50;60.50;;;;;;5115474;27;20200;-71
2022/10/16 12:05:58;;;;;;;5.90;5.30;;;28.60;62.60;;;;;;5116386;27;20204;-68
2022/10/16 12:08:26;;;;;;;6.85;6.22;;;27.60;64.80;;;;;;5120883;27;20332;-71
2022/10/16 12:10:55;;;;;;;7.40;6.68;;;26.80;67.30;;;;;;5117551;27;20311;-73
2022/10/16 12:13:33;;;;;;;7.32;6.45;;;26.20;69.40;;;;;;5118012;27;20292;-74
2022/10/16 12:16:20;;;;;;;7.53;6.63;;;25.70;71.10;;;;;;5114142;27;20203;-71
2022/10/16 12:18:48;;;;;;;7.65;6.70;;;25.40;72.00;;;;;;5112980;27;20223;-70
2022/10/16 12:21:18;;;;;;;6.85;6.03;;;25.10;73.40;;;;;;5114804;28;20226;-69
2022/10/16 12:23:51;;;;;;;8.52;6.90;;;25.30;74.10;;;;;;5116736;27;20272;-72
2022/10/16 12:26:26;;;;;;;8.18;5.97;;;25.40;73.50;;;;;;5116372;27;20816;-68
2022/10/16 12:28:53;;;;;;;7.70;6.32;;;25.40;73.40;;;;;;5112712;27;20195;-69
2022/10/16 12:31:21;;;;;;;10.85;6.75;;;25.30;73.30;;;;;;5115473;27;20230;-70
2022/10/16 12:33:59;;;;;;;7.90;5.93;;;25.00;74.00;;;;;;5116051;27;20299;-71
2022/10/16 12:36:31;;;;;;;10.90;6.82;;;24.80;74.70;;;;;;5112608;27;20289;-71
2022/10/16 12:39:01;;;;;;;8.98;6.30;;;24.60;75.60;;;;;;5112709;27;20230;-70
2022/10/16 12:41:29;;;;;;;8.45;5.90;;;24.40;76.00;;;;;;5115646;27;20211;-69
2022/10/16 12:43:57;;;;;;;6.95;6.00;;;24.30;76.80;;;;;;5115263;27;20577;-70
2022/10/16 12:46:39;;;;;;;8.80;5.95;;;24.00;77.10;;;;;;5111574;27;20208;-68